首页
METAR-TAF:

METAR-TAF

机场 :

艾爾帕索, 得克萨斯州, 美国

纬度: 31-48-40N, 经度: 106-22-33W, 海拔: 1206米

当前天气观测

该预报发布于1小时和1分钟前的10:51 UTC
风速12节,风向东转东南
温度 24°C
湿度 65%
气压 1020 hPa
能見度: 16.1公里
散云层高于3500英尺
多云层高于12000英尺
多云层高于20000英尺
阴天层高于25000英尺

METAR: KELP 211051Z 11012KT 10SM SCT035 BKN120 BKN200 OVC250 24/17 A3011 RMK AO2 SLP118 CLDS TPG MTNS NW T02390172

时间: 06:52 (11:52 UTC)

预报

该预报发布于23分钟前的11:29 UTC
预报有效从21日的 12点(UTC)到 22日的 12点(UTC)
风速13节,风向东转东南,有时为23节阵风
能見度: 10公里
散云层高于3000英尺
多云层高于12000英尺
阴天层高于25000英尺
从 21日的 1800点(UTC)
风速15节,风向东转东南,有时为25节阵风
能見度: 10公里
散云层高于3000英尺
多云层高于10000英尺

TAF: KELP 211129Z 2112/2212 11013G23KT P6SM SCT030 BKN120 OVC250 FM211800 12015G25KT P6SM SCT030 BKN100

超过4000个机场的气象观测和天气预报(METAR&TAF报告)。

可查询的气象台以黄色和红色小点在地图上表示。

将鼠标移到小点上方,可查看气象台名称。

然后点击查看天气观测和预报。

如需切换地图:点击带黑十字的绿色按钮放大地图;点击带横线的绿色按钮缩小地图;或者点击绿色箭头查看邻近地区的地图。


METAR-TAF: